createdAt,value
2017-08-24T00:02:20.238Z,32.20
2017-08-24T00:04:48.355Z,31.33
2017-08-24T00:07:16.463Z,34.47
2017-08-24T00:09:44.574Z,31.37
2017-08-24T00:12:12.743Z,36.80
2017-08-24T00:14:40.830Z,42.73
2017-08-24T00:17:09.250Z,38.33
2017-08-24T00:19:37.380Z,35.70
2017-08-24T00:22:05.600Z,39.77
2017-08-24T00:24:33.697Z,41.63
2017-08-24T00:27:01.819Z,33.90
2017-08-24T00:29:30.801Z,38.17
2017-08-24T00:31:59.042Z,36.27
2017-08-24T00:34:27.139Z,40.33
2017-08-24T00:36:55.230Z,37.60
2017-08-24T00:39:23.992Z,41.60
2017-08-24T00:41:52.123Z,46.10
2017-08-24T00:44:21.144Z,41.50
2017-08-24T00:46:50.143Z,38.53
2017-08-24T00:49:18.266Z,53.67
2017-08-24T00:51:46.533Z,45.97
2017-08-24T00:54:14.663Z,48.47
2017-08-24T00:56:42.794Z,39.30
2017-08-24T00:59:10.903Z,40.30
2017-08-24T01:01:39.500Z,42.37
2017-08-24T01:04:09.591Z,48.47
2017-08-24T01:06:37.716Z,41.93
2017-08-24T01:09:05.822Z,48.30
2017-08-24T01:11:33.920Z,44.00
2017-08-24T01:14:02.020Z,52.37
2017-08-24T01:16:30.139Z,41.07
2017-08-24T01:18:59.153Z,48.70
2017-08-24T01:21:27.617Z,43.53
2017-08-24T01:23:55.999Z,46.30
2017-08-24T01:26:24.179Z,52.93
2017-08-24T01:28:52.269Z,52.40
2017-08-24T01:31:22.293Z,42.03
2017-08-24T01:33:50.446Z,40.87
2017-08-24T01:36:18.532Z,50.90
2017-08-24T01:38:46.628Z,43.40
2017-08-24T01:41:14.741Z,46.50
2017-08-24T01:43:43.741Z,37.43
2017-08-24T01:46:12.502Z,30.37
2017-08-24T01:48:40.619Z,31.03
2017-08-24T01:51:08.744Z,19.30
2017-08-24T01:53:36.868Z,12.30
2017-08-24T01:56:05.009Z,11.90
2017-08-24T01:58:33.104Z,10.30
2017-08-24T02:01:02.144Z,13.23
2017-08-24T02:03:30.240Z,12.30
2017-08-24T02:05:58.356Z,19.60
2017-08-24T02:08:26.479Z,13.70
2017-08-24T02:10:54.590Z,6.87
2017-08-24T02:13:22.711Z,8.73
2017-08-24T02:15:50.831Z,11.57
2017-08-24T02:18:18.916Z,11.17
2017-08-24T02:20:47.012Z,9.60
2017-08-24T02:23:15.125Z,11.33
2017-08-24T02:25:43.218Z,13.63
2017-08-24T02:28:11.300Z,22.23
2017-08-24T02:30:40.316Z,16.63
2017-08-24T02:33:08.423Z,11.50
2017-08-24T02:35:36.530Z,8.03
2017-08-24T02:38:04.603Z,6.03
2017-08-24T02:40:32.699Z,15.40
2017-08-24T02:43:01.706Z,13.00
2017-08-24T02:45:29.787Z,9.13
2017-08-24T02:47:57.896Z,14.00
2017-08-24T02:50:26.003Z,11.23
2017-08-24T02:52:54.103Z,12.43
2017-08-24T02:55:22.191Z,19.93
2017-08-24T02:57:51.208Z,11.60
2017-08-24T03:00:19.298Z,9.13
2017-08-24T03:02:47.411Z,10.07
2017-08-24T03:05:15.503Z,17.87
2017-08-24T03:07:45.301Z,10.53
2017-08-24T03:10:13.408Z,12.33
2017-08-24T03:12:41.492Z,16.50
2017-08-24T03:15:09.616Z,13.47
2017-08-24T03:17:37.724Z,15.37
2017-08-24T03:20:05.828Z,12.10
2017-08-24T03:22:33.932Z,13.63
2017-08-24T03:25:02.076Z,14.27
2017-08-24T03:27:30.184Z,13.53
2017-08-24T03:29:58.288Z,16.73
2017-08-24T03:32:27.326Z,17.17
2017-08-24T03:34:56.343Z,16.97
2017-08-24T03:37:24.456Z,15.70
2017-08-24T03:39:52.573Z,14.63
2017-08-24T03:42:20.684Z,15.83
2017-08-24T03:44:48.779Z,14.67
2017-08-24T03:47:16.870Z,15.57
2017-08-24T03:49:44.960Z,13.20
2017-08-24T03:52:13.952Z,14.97
2017-08-24T03:54:42.055Z,14.43
2017-08-24T03:57:10.135Z,11.93
2017-08-24T03:59:38.217Z,11.37
2017-08-24T04:02:06.312Z,13.23
2017-08-24T04:04:34.408Z,16.30
2017-08-24T04:07:02.500Z,13.63
2017-08-24T04:09:30.600Z,29.80
2017-08-24T04:11:58.722Z,22.97
2017-08-24T04:14:26.804Z,17.83
2017-08-24T04:16:54.887Z,14.67
2017-08-24T04:19:24.056Z,17.73
2017-08-24T04:21:52.131Z,19.03
2017-08-24T04:24:20.232Z,18.77
2017-08-24T04:26:49.223Z,20.63
2017-08-24T04:29:18.232Z,21.20
2017-08-24T04:31:46.325Z,21.80
2017-08-24T04:34:14.406Z,16.50
2017-08-24T04:36:42.503Z,15.27
2017-08-24T04:39:10.596Z,22.57
2017-08-24T04:41:39.629Z,19.17
2017-08-24T04:44:07.710Z,17.53
2017-08-24T04:46:35.783Z,18.13
2017-08-24T04:49:03.888Z,19.43
2017-08-24T04:51:31.968Z,15.60
2017-08-24T04:54:00.071Z,15.50
2017-08-24T04:56:28.150Z,16.17
2017-08-24T04:58:56.246Z,19.13
2017-08-24T05:01:24.327Z,15.40
2017-08-24T05:03:52.460Z,21.20
2017-08-24T05:06:20.560Z,23.80
2017-08-24T05:08:48.631Z,18.73
2017-08-24T05:11:16.706Z,24.60
2017-08-24T05:13:44.806Z,21.87
2017-08-24T05:16:12.907Z,17.50
2017-08-24T05:18:41.004Z,18.57
2017-08-24T05:21:09.120Z,19.53
2017-08-24T05:23:37.190Z,21.67
2017-08-24T05:26:05.299Z,18.23
2017-08-24T05:28:33.403Z,20.37
2017-08-24T05:31:01.502Z,16.27
2017-08-24T05:33:29.575Z,20.30
2017-08-24T05:35:57.687Z,18.63
2017-08-24T05:38:25.767Z,17.30
2017-08-24T05:40:53.869Z,19.37
2017-08-24T05:43:21.944Z,17.90
2017-08-24T05:45:51.035Z,18.33
2017-08-24T05:48:19.167Z,28.37
2017-08-24T05:50:47.251Z,19.87
2017-08-24T05:53:15.366Z,19.67
2017-08-24T05:55:43.502Z,18.57
2017-08-24T05:58:11.585Z,15.13
2017-08-24T06:00:40.607Z,15.87
2017-08-24T06:03:08.733Z,14.63
2017-08-24T06:05:36.828Z,17.27
2017-08-24T06:08:04.935Z,20.13
2017-08-24T06:10:33.040Z,19.63
2017-08-24T06:13:01.130Z,16.90
2017-08-24T06:15:30.163Z,13.60
2017-08-24T06:17:59.204Z,18.20
2017-08-24T06:20:27.277Z,19.90
2017-08-24T06:22:55.382Z,18.00
2017-08-24T06:25:23.467Z,19.73
2017-08-24T06:27:51.536Z,15.93
2017-08-24T06:30:19.648Z,21.57
2017-08-24T06:32:47.732Z,21.90
2017-08-24T06:35:15.827Z,17.63
2017-08-24T06:37:43.913Z,20.17
2017-08-24T06:40:12.031Z,19.40
2017-08-24T06:42:40.134Z,16.87
2017-08-24T06:45:08.222Z,20.90
2017-08-24T06:47:36.319Z,23.97
2017-08-24T06:50:04.456Z,17.43
2017-08-24T06:52:32.575Z,20.83
2017-08-24T06:55:00.665Z,26.43
2017-08-24T06:57:28.780Z,19.30
2017-08-24T06:59:57.792Z,22.50
2017-08-24T07:02:25.904Z,16.73
2017-08-24T07:04:54.004Z,11.97
2017-08-24T07:07:22.089Z,21.07
2017-08-24T07:09:51.091Z,19.87
2017-08-24T07:12:19.183Z,21.23
2017-08-24T07:14:47.286Z,16.90
2017-08-24T07:17:15.388Z,12.27
2017-08-24T07:19:43.464Z,15.03
2017-08-24T07:22:11.576Z,16.77
2017-08-24T07:24:39.670Z,16.13
2017-08-24T07:27:07.775Z,17.30
2017-08-24T07:29:35.860Z,19.90
2017-08-24T07:32:03.967Z,12.80
2017-08-24T07:34:32.056Z,18.17
2017-08-24T07:37:00.159Z,21.83
2017-08-24T07:39:28.268Z,28.47
2017-08-24T07:41:56.372Z,20.83
2017-08-24T07:44:24.476Z,21.13
2017-08-24T07:46:52.562Z,18.83
2017-08-24T07:49:20.663Z,35.57
2017-08-24T07:51:49.658Z,23.07
2017-08-24T07:54:18.666Z,25.17
2017-08-24T07:56:46.784Z,32.03
2017-08-24T07:59:14.897Z,25.67
2017-08-24T08:01:43.007Z,21.23
2017-08-24T08:04:11.093Z,18.57
2017-08-24T08:06:40.135Z,23.00
2017-08-24T08:09:08.233Z,21.90
2017-08-24T08:11:36.319Z,27.40
2017-08-24T08:14:04.427Z,22.30
2017-08-24T08:16:32.498Z,29.67
2017-08-24T08:19:00.587Z,22.47
2017-08-24T08:21:28.687Z,19.20
2017-08-24T08:23:56.779Z,25.13
2017-08-24T08:26:24.888Z,15.13
2017-08-24T08:28:52.979Z,18.73
2017-08-24T08:31:22.047Z,24.13
2017-08-24T08:33:50.143Z,22.13
2017-08-24T08:36:18.245Z,15.33
2017-08-24T08:38:46.328Z,20.40
2017-08-24T08:41:14.447Z,19.30
2017-08-24T08:43:42.546Z,23.77
2017-08-24T08:46:10.639Z,22.60
2017-08-24T08:48:38.736Z,26.10
2017-08-24T08:51:06.826Z,21.60
2017-08-24T08:53:34.920Z,21.90
2017-08-24T08:56:04.923Z,25.30
2017-08-24T08:58:33.007Z,15.67
2017-08-24T09:01:01.151Z,20.67
2017-08-24T09:03:29.246Z,16.93
2017-08-24T09:05:58.271Z,13.90
2017-08-24T09:08:26.342Z,14.60
2017-08-24T09:10:54.442Z,27.37
2017-08-24T09:13:22.522Z,15.80
2017-08-24T09:15:50.640Z,20.17
2017-08-24T09:18:19.655Z,19.30
2017-08-24T09:20:47.732Z,17.30
2017-08-24T09:23:15.844Z,20.80
2017-08-24T09:25:43.928Z,21.67
2017-08-24T09:28:12.036Z,36.60
2017-08-24T09:30:40.115Z,19.93
2017-08-24T09:33:08.204Z,17.67
2017-08-24T09:35:36.307Z,25.53
2017-08-24T09:38:04.394Z,18.10
2017-08-24T09:40:33.400Z,14.33
2017-08-24T09:43:01.506Z,22.53
2017-08-24T09:45:29.607Z,12.70
2017-08-24T09:47:57.731Z,20.10
2017-08-24T09:50:25.811Z,14.17
2017-08-24T09:52:53.945Z,18.37
2017-08-24T09:55:22.036Z,16.23
2017-08-24T09:57:50.164Z,16.23
2017-08-24T10:00:18.251Z,12.97
2017-08-24T10:02:46.344Z,14.43
2017-08-24T10:05:14.452Z,15.03
2017-08-24T10:07:42.537Z,23.23
2017-08-24T10:10:10.607Z,11.17
2017-08-24T10:12:38.748Z,12.57
2017-08-24T10:15:06.849Z,20.63
2017-08-24T10:17:34.937Z,15.70
2017-08-24T10:20:03.041Z,18.17
2017-08-24T10:22:32.042Z,14.47
2017-08-24T10:25:01.058Z,17.00
2017-08-24T10:27:30.058Z,15.50
2017-08-24T10:29:58.204Z,15.30
2017-08-24T10:32:26.242Z,14.20
2017-08-24T10:34:54.330Z,17.83
2017-08-24T10:37:22.516Z,16.77
2017-08-24T10:39:50.663Z,13.40
2017-08-24T10:42:18.772Z,17.30
2017-08-24T10:44:46.882Z,13.20
2017-08-24T10:47:14.995Z,16.33
2017-08-24T10:49:43.074Z,17.20
2017-08-24T10:52:11.976Z,15.97
2017-08-24T10:54:40.074Z,9.80
2017-08-24T10:57:08.184Z,14.53
2017-08-24T10:59:36.283Z,19.90
2017-08-24T11:02:04.372Z,15.90
2017-08-24T11:04:32.515Z,15.97
2017-08-24T11:07:00.589Z,12.13
2017-08-24T11:09:28.683Z,18.23
2017-08-24T11:11:58.702Z,15.97
2017-08-24T11:14:26.792Z,15.17
2017-08-24T11:16:54.929Z,18.90
2017-08-24T11:19:23.048Z,17.30
2017-08-24T11:21:51.165Z,14.00
2017-08-24T11:24:19.256Z,19.93
2017-08-24T11:26:47.347Z,21.93
2017-08-24T11:29:15.429Z,18.10
2017-08-24T11:31:43.535Z,13.00
2017-08-24T11:34:11.616Z,19.20
2017-08-24T11:36:39.714Z,17.17
2017-08-24T11:39:07.799Z,15.50
2017-08-24T11:41:35.868Z,21.00
2017-08-24T11:44:03.975Z,14.27
2017-08-24T11:46:32.106Z,17.33
2017-08-24T11:49:00.147Z,17.13
2017-08-24T11:51:28.248Z,13.10
2017-08-24T11:53:56.367Z,14.83
2017-08-24T11:56:24.488Z,13.53
2017-08-24T11:58:52.583Z,11.20
2017-08-24T12:01:20.680Z,13.70
2017-08-24T12:03:48.787Z,15.17
2017-08-24T12:06:16.874Z,15.57
2017-08-24T12:08:44.947Z,15.37
2017-08-24T12:11:13.047Z,13.20
2017-08-24T12:13:41.135Z,16.03
2017-08-24T12:16:09.232Z,15.40
2017-08-24T12:18:38.210Z,11.57
2017-08-24T12:21:06.323Z,24.67
2017-08-24T12:23:34.404Z,18.63
2017-08-24T12:26:03.396Z,15.87
2017-08-24T12:28:31.498Z,15.90
2017-08-24T12:30:59.581Z,17.00
2017-08-24T12:33:27.690Z,14.23
2017-08-24T12:35:55.771Z,11.73
2017-08-24T12:38:24.784Z,10.73
2017-08-24T12:40:52.887Z,12.90
2017-08-24T12:43:20.959Z,8.20
2017-08-24T12:45:49.068Z,11.90
2017-08-24T12:48:17.159Z,11.47
2017-08-24T12:50:45.249Z,11.20
2017-08-24T12:53:13.326Z,9.17
2017-08-24T12:55:41.664Z,25.83
2017-08-24T12:58:09.751Z,13.30
2017-08-24T13:00:37.849Z,8.57
2017-08-24T13:03:05.955Z,9.63
2017-08-24T13:05:34.032Z,9.90
2017-08-24T13:08:03.043Z,16.27
2017-08-24T13:10:31.138Z,7.77
2017-08-24T13:12:59.207Z,8.53
2017-08-24T13:15:27.329Z,15.33
2017-08-24T13:17:55.428Z,10.93
2017-08-24T13:20:23.523Z,14.63
2017-08-24T13:22:51.644Z,12.80
2017-08-24T13:25:19.732Z,18.00
2017-08-24T13:30:28.374Z,11.37
2017-08-24T13:32:56.474Z,8.73
2017-08-24T13:35:24.554Z,8.60
2017-08-24T13:37:52.651Z,6.93
2017-08-24T13:40:23.663Z,7.77
2017-08-24T13:42:51.762Z,7.43
2017-08-24T13:45:20.112Z,4.27
2017-08-24T13:47:48.210Z,9.20
2017-08-24T13:50:16.283Z,6.30
2017-08-24T13:52:44.385Z,13.30
2017-08-24T13:55:13.383Z,14.53
2017-08-24T13:57:41.484Z,6.43
2017-08-24T14:00:09.559Z,16.23
2017-08-24T14:02:37.655Z,11.37
2017-08-24T14:05:05.763Z,13.70
2017-08-24T14:07:33.846Z,9.17
2017-08-24T14:10:01.972Z,12.53
2017-08-24T14:12:30.092Z,11.33
2017-08-24T14:14:58.189Z,9.10
2017-08-24T14:17:26.303Z,7.70
2017-08-24T14:19:54.404Z,10.37
2017-08-24T14:22:22.515Z,6.60
2017-08-24T14:24:50.588Z,7.30
2017-08-24T14:27:18.698Z,11.40
2017-08-24T14:29:46.768Z,4.90
2017-08-24T14:32:15.768Z,5.73
2017-08-24T14:34:44.772Z,9.63
2017-08-24T14:37:12.859Z,6.33
2017-08-24T14:39:40.944Z,7.97
2017-08-24T14:42:09.052Z,10.40
2017-08-24T14:44:37.131Z,8.90
2017-08-24T14:47:05.242Z,8.70
2017-08-24T14:49:33.316Z,7.50
2017-08-24T14:52:01.467Z,15.63
2017-08-24T14:54:30.449Z,6.10
2017-08-24T14:56:58.542Z,5.93
2017-08-24T14:59:26.643Z,10.30
2017-08-24T15:01:54.728Z,5.87
2017-08-24T15:04:22.831Z,10.63
2017-08-24T15:06:50.919Z,7.97
2017-08-24T15:09:19.019Z,3.83
2017-08-24T15:11:48.043Z,9.53
2017-08-24T15:14:16.147Z,5.50
2017-08-24T15:16:44.240Z,9.40
2017-08-24T15:19:12.337Z,10.90
2017-08-24T15:21:40.439Z,7.03
2017-08-24T15:24:08.527Z,7.73
2017-08-24T15:26:36.644Z,13.20
2017-08-24T15:29:04.734Z,9.57
2017-08-24T15:31:32.838Z,40.07
2017-08-24T15:34:00.961Z,22.03
2017-08-24T15:36:29.042Z,11.37
2017-08-24T15:38:57.171Z,12.27
2017-08-24T15:41:25.288Z,25.03
2017-08-24T15:43:53.391Z,13.90
2017-08-24T15:46:21.486Z,10.00
2017-08-24T15:48:49.577Z,7.40
2017-08-24T15:51:17.700Z,6.83
2017-08-24T15:53:46.707Z,17.00
2017-08-24T15:56:14.802Z,15.77
2017-08-24T15:58:42.917Z,12.13
2017-08-24T16:01:11.023Z,8.40
2017-08-24T16:03:39.130Z,6.53
2017-08-24T16:06:08.144Z,7.73
2017-08-24T16:08:37.166Z,6.00
2017-08-24T16:11:06.200Z,7.33
2017-08-24T16:13:34.275Z,10.03
2017-08-24T16:16:02.374Z,9.70
2017-08-24T16:18:30.454Z,10.63
2017-08-24T16:20:58.569Z,7.30
2017-08-24T16:23:26.675Z,8.23
2017-08-24T16:25:54.748Z,8.27
2017-08-24T16:28:22.878Z,11.77
2017-08-24T16:30:50.986Z,9.47
2017-08-24T16:33:25.791Z,7.83
2017-08-24T16:36:05.327Z,10.57
2017-08-24T16:38:37.205Z,5.97
2017-08-24T16:41:05.276Z,9.17
2017-08-24T16:43:33.373Z,6.43
2017-08-24T16:46:01.472Z,8.07
2017-08-24T16:48:29.553Z,9.00
2017-08-24T16:50:57.658Z,8.90
2017-08-24T16:53:25.736Z,10.83
2017-08-24T16:55:53.852Z,8.87
2017-08-24T16:58:25.841Z,10.07
2017-08-24T17:00:54.005Z,9.77
2017-08-24T17:03:22.118Z,10.33
2017-08-24T17:05:50.242Z,7.87
2017-08-24T17:08:18.368Z,11.03
2017-08-24T17:10:47.443Z,14.07
2017-08-24T17:13:16.438Z,13.97
2017-08-24T17:15:44.543Z,14.27
2017-08-24T17:18:12.765Z,13.77
2017-08-24T17:20:41.097Z,7.77
2017-08-24T17:23:09.225Z,8.50
2017-08-24T17:25:37.339Z,10.80
2017-08-24T17:28:05.424Z,9.70
2017-08-24T17:30:33.783Z,9.37
2017-08-24T17:33:05.844Z,7.27
2017-08-24T17:35:35.549Z,7.65
2017-08-24T17:38:20.265Z,6.67
2017-08-24T17:43:03.387Z,11.20
2017-08-24T17:45:31.495Z,6.87
2017-08-24T17:47:59.591Z,13.30
2017-08-24T17:50:27.675Z,11.27
2017-08-24T17:52:55.794Z,9.60
2017-08-24T17:55:23.877Z,10.60
2017-08-24T17:57:52.843Z,14.50
2017-08-24T18:00:20.940Z,10.50
2017-08-24T18:02:49.061Z,11.20
2017-08-24T18:05:17.137Z,19.53
2017-08-24T18:07:45.232Z,8.63
2017-08-24T18:10:13.327Z,10.20
2017-08-24T18:12:41.421Z,8.50
2017-08-24T18:15:11.419Z,22.50
2017-08-24T18:17:39.508Z,11.40
2017-08-24T18:20:07.601Z,7.90
2017-08-24T18:22:35.738Z,8.47
2017-08-24T18:25:03.815Z,10.93
2017-08-24T18:27:31.916Z,10.10
2017-08-24T18:30:00.001Z,13.10
2017-08-24T18:32:28.117Z,6.50
2017-08-24T18:34:56.206Z,17.47
2017-08-24T18:37:24.307Z,10.83
2017-08-24T18:39:52.408Z,10.43
2017-08-24T18:42:20.505Z,8.10
2017-08-24T18:44:50.221Z,9.37
2017-08-24T18:47:18.328Z,6.67
2017-08-24T18:49:46.413Z,10.23
2017-08-24T18:52:14.510Z,11.43
2017-08-24T18:54:42.910Z,7.63
2017-08-24T18:57:10.999Z,11.30
2017-08-24T18:59:39.080Z,10.33
2017-08-24T19:02:07.198Z,15.23
2017-08-24T19:04:35.304Z,14.73
2017-08-24T19:07:04.110Z,11.77
2017-08-24T19:09:32.204Z,8.70
2017-08-24T19:12:00.321Z,13.50
2017-08-24T19:14:28.443Z,17.27
2017-08-24T19:16:56.519Z,12.70
2017-08-24T19:19:24.615Z,11.70
2017-08-24T19:21:52.686Z,16.07
2017-08-24T19:24:20.784Z,17.10
2017-08-24T19:26:49.796Z,12.93
2017-08-24T19:29:17.881Z,12.27
2017-08-24T19:31:45.963Z,10.73
2017-08-24T19:34:14.071Z,8.70
2017-08-24T19:36:42.179Z,12.40
2017-08-24T19:39:10.313Z,14.10
2017-08-24T19:41:38.416Z,14.90
2017-08-24T19:44:07.399Z,15.07
2017-08-24T19:46:36.408Z,12.03
2017-08-24T19:49:04.488Z,8.53
2017-08-24T19:51:32.564Z,9.97
2017-08-24T19:54:00.658Z,9.10
2017-08-24T19:56:28.730Z,7.30
2017-08-24T19:58:56.849Z,9.17
2017-08-24T20:01:24.923Z,9.07
2017-08-24T20:03:53.045Z,8.67
2017-08-24T20:06:21.125Z,8.40
2017-08-24T20:08:49.215Z,10.10
2017-08-24T20:11:17.329Z,13.10
2017-08-24T20:13:45.404Z,10.50
2017-08-24T20:16:13.505Z,11.27
2017-08-24T20:18:41.592Z,9.00
2017-08-24T20:21:09.692Z,11.30
2017-08-24T20:23:37.794Z,8.83
2017-08-24T20:26:06.541Z,9.90
2017-08-24T20:28:34.622Z,13.53
2017-08-24T20:31:02.707Z,17.70
2017-08-24T20:33:30.804Z,8.00
2017-08-24T20:35:58.891Z,9.57
2017-08-24T20:38:26.986Z,12.30
2017-08-24T20:40:56.014Z,11.47
2017-08-24T20:43:24.110Z,8.53
2017-08-24T20:45:52.214Z,11.70
2017-08-24T20:48:20.320Z,12.37
2017-08-24T20:50:48.953Z,12.87
2017-08-24T20:53:17.059Z,18.53
2017-08-24T20:55:45.160Z,12.80
2017-08-24T20:58:13.260Z,8.57
2017-08-24T21:00:41.356Z,11.63
2017-08-24T21:03:09.456Z,13.83
2017-08-24T21:05:38.457Z,9.77
2017-08-24T21:08:06.551Z,11.30
2017-08-24T21:10:34.646Z,8.93
2017-08-24T21:13:02.729Z,9.70
2017-08-24T21:15:30.815Z,12.27
2017-08-24T21:17:58.932Z,12.57
2017-08-24T21:20:27.614Z,9.93
2017-08-24T21:22:56.652Z,18.20
2017-08-24T21:25:24.755Z,17.17
2017-08-24T21:27:52.868Z,10.87
2017-08-24T21:30:20.960Z,10.10
2017-08-24T21:32:49.051Z,11.20
2017-08-24T21:35:17.149Z,7.93
2017-08-24T21:37:46.139Z,10.27
2017-08-24T21:40:15.146Z,9.20
2017-08-24T21:42:43.239Z,8.43
2017-08-24T21:45:11.311Z,13.97
2017-08-24T21:47:39.420Z,7.57
2017-08-24T21:50:07.497Z,12.50
2017-08-24T21:52:35.617Z,8.23
2017-08-24T21:55:03.700Z,9.10
2017-08-24T21:57:31.776Z,7.10
2017-08-24T21:59:59.898Z,8.27
2017-08-24T22:02:28.895Z,5.93
2017-08-24T22:04:56.975Z,10.77
2017-08-24T22:07:25.087Z,10.93
2017-08-24T22:09:54.106Z,11.43
2017-08-24T22:12:23.104Z,9.13
2017-08-24T22:14:51.179Z,7.90
2017-08-24T22:17:19.287Z,7.53
2017-08-24T22:19:48.315Z,10.47
2017-08-24T22:22:16.432Z,10.53
2017-08-24T22:24:44.515Z,13.90
2017-08-24T22:27:12.617Z,14.47
2017-08-24T22:29:40.695Z,7.40
2017-08-24T22:32:08.791Z,9.33
2017-08-24T22:34:36.878Z,6.90
2017-08-24T22:37:04.968Z,7.37
2017-08-24T22:39:33.079Z,12.17
2017-08-24T22:42:02.081Z,8.83
2017-08-24T22:44:30.208Z,11.63
2017-08-24T22:46:58.292Z,5.60
2017-08-24T22:49:26.393Z,11.93
2017-08-24T22:51:54.496Z,9.53
2017-08-24T22:54:28.002Z,5.33
2017-08-24T23:00:03.779Z,12.10
2017-08-24T23:02:37.295Z,10.00
2017-08-24T23:05:05.573Z,9.37
2017-08-24T23:07:36.909Z,6.13
2017-08-24T23:10:05.036Z,7.13
2017-08-24T23:12:33.127Z,8.60
2017-08-24T23:15:01.247Z,7.93
2017-08-24T23:17:29.319Z,6.33
2017-08-24T23:19:57.412Z,10.77
2017-08-24T23:22:25.516Z,13.97
2017-08-24T23:24:53.592Z,8.30
2017-08-24T23:27:21.706Z,9.03
2017-08-24T23:29:49.794Z,12.60
2017-08-24T23:32:18.816Z,8.93
2017-08-24T23:34:50.258Z,7.03
2017-08-24T23:37:18.352Z,9.83
2017-08-24T23:39:46.471Z,13.10
2017-08-24T23:42:14.554Z,9.33
2017-08-24T23:44:43.588Z,11.80
2017-08-24T23:47:11.667Z,8.90
2017-08-24T23:49:39.743Z,6.70
2017-08-24T23:52:07.835Z,11.87
2017-08-24T23:54:35.975Z,9.13
2017-08-24T23:57:04.974Z,8.43
2017-08-24T23:59:33.080Z,12.07
